createdAt,value
2018-08-24T00:02:06.572Z,6.70
2018-08-24T00:04:36.109Z,6.00
2018-08-24T00:07:05.730Z,6.70
2018-08-24T00:09:35.223Z,6.60
2018-08-24T00:12:05.287Z,7.03
2018-08-24T00:14:35.772Z,7.40
2018-08-24T00:17:09.350Z,7.03
2018-08-24T00:19:39.029Z,6.83
2018-08-24T00:22:08.958Z,6.07
2018-08-24T00:24:38.414Z,5.90
2018-08-24T00:27:08.201Z,7.10
2018-08-24T00:29:37.803Z,6.57
2018-08-24T00:32:08.261Z,6.40
2018-08-24T00:34:38.337Z,6.50
2018-08-24T00:37:08.163Z,6.73
2018-08-24T00:39:41.293Z,6.80
2018-08-24T00:42:12.095Z,6.57
2018-08-24T00:44:42.331Z,8.10
2018-08-24T00:47:12.332Z,7.27
2018-08-24T00:49:42.056Z,7.47
2018-08-24T00:52:11.565Z,8.10
2018-08-24T00:54:41.015Z,8.20
2018-08-24T00:57:10.386Z,7.80
2018-08-24T00:59:39.850Z,8.40
2018-08-24T01:02:09.439Z,7.60
2018-08-24T01:04:39.161Z,8.07
2018-08-24T01:07:11.426Z,7.60
2018-08-24T01:09:41.382Z,7.97
2018-08-24T01:12:12.630Z,8.07
2018-08-24T01:14:43.699Z,8.50
2018-08-24T01:17:18.484Z,8.60
2018-08-24T01:19:48.442Z,7.80
2018-08-24T01:22:19.198Z,8.60
2018-08-24T01:24:49.046Z,8.17
2018-08-24T01:27:18.962Z,8.30
2018-08-24T01:29:49.311Z,8.07
2018-08-24T01:32:20.840Z,8.37
2018-08-24T01:34:50.473Z,8.40
2018-08-24T01:37:20.525Z,7.97
2018-08-24T01:39:50.219Z,8.67
2018-08-24T01:42:19.881Z,8.47
2018-08-24T01:44:50.419Z,8.07
2018-08-24T01:47:21.032Z,8.97
2018-08-24T01:49:50.855Z,8.50
2018-08-24T01:52:20.735Z,9.17
2018-08-24T01:54:50.143Z,8.37
2018-08-24T01:57:20.455Z,7.50
2018-08-24T01:59:50.476Z,7.83
2018-08-24T02:02:20.535Z,7.83
2018-08-24T02:04:51.612Z,7.60
2018-08-24T02:07:22.154Z,7.33
2018-08-24T02:09:52.238Z,7.40
2018-08-24T02:12:29.152Z,7.80
2018-08-24T02:14:58.900Z,7.57
2018-08-24T02:17:34.316Z,7.50
2018-08-24T02:20:10.370Z,8.03
2018-08-24T02:22:39.969Z,7.47
2018-08-24T02:25:11.958Z,7.50
2018-08-24T02:27:42.434Z,6.70
2018-08-24T02:30:12.530Z,7.67
2018-08-24T02:32:42.545Z,7.10
2018-08-24T02:35:12.285Z,6.67
2018-08-24T02:37:41.916Z,6.90
2018-08-24T02:40:11.300Z,6.10
2018-08-24T02:42:40.720Z,6.10
2018-08-24T02:45:11.003Z,5.97
2018-08-24T02:47:40.665Z,6.87
2018-08-24T02:50:10.294Z,5.93
2018-08-24T02:52:39.694Z,6.10
2018-08-24T02:55:09.086Z,5.43
2018-08-24T02:57:39.062Z,5.30
2018-08-24T03:00:08.750Z,5.07
2018-08-24T03:02:38.620Z,5.20
2018-08-24T03:05:09.305Z,4.97
2018-08-24T03:07:38.709Z,4.63
2018-08-24T03:10:08.118Z,5.70
2018-08-24T03:12:37.859Z,5.07
2018-08-24T03:15:08.267Z,5.63
2018-08-24T03:17:43.097Z,5.40
2018-08-24T03:20:13.021Z,5.23
2018-08-24T03:22:42.384Z,5.17
2018-08-24T03:25:12.551Z,5.80
2018-08-24T03:27:41.922Z,4.90
2018-08-24T03:30:26.779Z,5.90
2018-08-24T03:32:57.558Z,5.73
2018-08-24T03:35:28.553Z,6.03
2018-08-24T03:37:58.870Z,6.27
2018-08-24T03:40:28.501Z,6.93
2018-08-24T03:42:59.217Z,6.80
2018-08-24T03:45:28.625Z,6.83
2018-08-24T03:47:59.806Z,6.80
2018-08-24T03:50:30.297Z,7.20
2018-08-24T03:52:59.996Z,6.97
2018-08-24T03:55:33.495Z,7.33
2018-08-24T03:58:03.604Z,6.80
2018-08-24T04:00:33.782Z,6.97
2018-08-24T04:03:03.258Z,6.60
2018-08-24T04:05:33.933Z,6.10
2018-08-24T04:08:03.327Z,6.80
2018-08-24T04:10:34.189Z,6.87
2018-08-24T04:13:04.157Z,7.27
2018-08-24T04:15:33.838Z,7.30
2018-08-24T04:18:03.287Z,7.20
2018-08-24T04:20:33.170Z,7.40
2018-08-24T04:23:02.554Z,7.43
2018-08-24T04:25:32.193Z,7.80
2018-08-24T04:28:01.620Z,8.27
2018-08-24T04:30:32.119Z,8.30
2018-08-24T04:33:01.994Z,7.20
2018-08-24T04:35:31.470Z,7.90
2018-08-24T04:38:01.399Z,8.63
2018-08-24T04:40:33.536Z,8.20
2018-08-24T04:43:04.812Z,8.13
2018-08-24T04:45:48.515Z,7.80
2018-08-24T04:48:18.944Z,8.00
2018-08-24T04:50:53.162Z,7.97
2018-08-24T04:53:24.212Z,8.37
2018-08-24T04:55:56.338Z,8.30
2018-08-24T04:58:28.614Z,7.70
2018-08-24T05:01:00.346Z,8.00
2018-08-24T05:03:32.724Z,9.67
2018-08-24T05:06:03.300Z,8.50
2018-08-24T05:08:33.902Z,9.30
2018-08-24T05:11:03.819Z,8.90
2018-08-24T05:13:35.748Z,8.80
2018-08-24T05:16:09.028Z,8.50
2018-08-24T05:18:38.653Z,8.40
2018-08-24T05:21:08.569Z,8.03
2018-08-24T05:23:38.173Z,8.90
2018-08-24T05:26:07.807Z,8.33
2018-08-24T05:28:39.537Z,8.40
2018-08-24T05:31:13.991Z,8.73
2018-08-24T05:33:46.287Z,8.23
2018-08-24T05:36:16.764Z,8.33
2018-08-24T05:38:51.323Z,8.60
2018-08-24T05:41:23.371Z,8.27
2018-08-24T05:43:52.980Z,8.87
2018-08-24T05:46:26.162Z,8.40
2018-08-24T05:48:57.503Z,7.43
2018-08-24T05:51:29.710Z,7.73
2018-08-24T05:53:59.507Z,7.30
2018-08-24T05:56:29.438Z,7.77
2018-08-24T05:59:00.418Z,8.30
2018-08-24T06:01:35.883Z,6.67
2018-08-24T06:04:08.415Z,7.80
2018-08-24T06:06:38.065Z,7.80
2018-08-24T06:09:14.816Z,7.53
2018-08-24T06:11:46.215Z,8.00
2018-08-24T06:14:17.629Z,7.07
2018-08-24T06:16:57.589Z,7.20
2018-08-24T06:19:47.922Z,9.00
2018-08-24T06:22:21.502Z,6.87
2018-08-24T06:24:57.738Z,7.37
2018-08-24T06:27:34.019Z,7.73
2018-08-24T06:30:10.211Z,7.10
2018-08-24T06:32:45.121Z,6.60
2018-08-24T06:35:17.841Z,7.20
2018-08-24T06:37:51.469Z,7.37
2018-08-24T06:40:23.499Z,6.63
2018-08-24T06:42:51.878Z,7.33
2018-08-24T06:45:22.065Z,6.70
2018-08-24T06:47:52.130Z,7.37
2018-08-24T06:50:26.864Z,5.90
2018-08-24T06:53:03.054Z,6.17
2018-08-24T06:55:32.626Z,4.97
2018-08-24T06:58:03.288Z,5.00
2018-08-24T07:00:36.571Z,4.80
2018-08-24T07:03:06.185Z,4.20
2018-08-24T07:05:36.882Z,3.90
2018-08-24T07:08:06.760Z,4.57
2018-08-24T07:10:38.491Z,4.53
2018-08-24T07:13:09.354Z,4.53
2018-08-24T07:15:38.794Z,4.07
2018-08-24T07:18:11.974Z,4.00
2018-08-24T07:20:45.645Z,4.07
2018-08-24T07:23:19.299Z,3.70
2018-08-24T07:25:50.165Z,3.90
2018-08-24T07:28:21.988Z,4.03
2018-08-24T07:30:51.777Z,3.70
2018-08-24T07:33:23.532Z,3.20
2018-08-24T07:35:53.145Z,3.97
2018-08-24T07:38:24.148Z,3.33
2018-08-24T07:40:54.641Z,4.40
2018-08-24T07:43:24.924Z,3.57
2018-08-24T07:45:54.686Z,3.23
2018-08-24T07:48:26.265Z,2.80
2018-08-24T07:50:58.955Z,3.17
2018-08-24T07:53:29.264Z,3.20
2018-08-24T07:56:00.747Z,3.30
2018-08-24T07:58:33.345Z,3.00
2018-08-24T08:01:05.790Z,2.67
2018-08-24T08:03:39.205Z,2.40
2018-08-24T08:06:09.059Z,2.23
2018-08-24T08:08:44.248Z,2.27
2018-08-24T08:11:24.107Z,2.47
2018-08-24T08:13:54.455Z,2.30
2018-08-24T08:16:26.373Z,2.10
2018-08-24T08:18:56.359Z,2.80
2018-08-24T08:21:26.610Z,2.00
2018-08-24T08:23:58.296Z,2.40
2018-08-24T08:26:28.638Z,2.27
2018-08-24T08:28:58.767Z,2.00
2018-08-24T08:31:28.715Z,1.60
2018-08-24T08:33:58.773Z,1.50
2018-08-24T08:36:33.577Z,1.33
2018-08-24T08:39:07.437Z,1.70
2018-08-24T08:41:37.166Z,1.73
2018-08-24T08:44:06.864Z,1.50
2018-08-24T08:46:36.722Z,1.87
2018-08-24T08:49:11.632Z,1.80
2018-08-24T08:51:41.524Z,1.73
2018-08-24T08:54:13.118Z,1.57
2018-08-24T08:56:42.926Z,2.07
2018-08-24T08:59:15.166Z,1.60
2018-08-24T09:01:50.350Z,1.40
2018-08-24T09:04:20.235Z,1.50
2018-08-24T09:06:49.840Z,1.40
2018-08-24T09:09:19.546Z,1.80
2018-08-24T09:11:52.581Z,1.30
2018-08-24T09:14:24.172Z,1.93
2018-08-24T09:16:53.575Z,1.70
2018-08-24T09:19:32.621Z,1.67
2018-08-24T09:22:07.799Z,1.77
2018-08-24T09:24:48.131Z,1.50
2018-08-24T09:27:30.908Z,2.27
2018-08-24T09:30:03.152Z,1.90
2018-08-24T09:32:35.029Z,1.40
2018-08-24T09:35:05.017Z,1.67
2018-08-24T09:37:39.274Z,1.80
2018-08-24T09:40:10.126Z,2.03
2018-08-24T09:42:40.472Z,1.30
2018-08-24T09:45:10.034Z,1.80
2018-08-24T09:47:44.437Z,1.93
2018-08-24T09:50:21.570Z,1.90
2018-08-24T09:52:56.248Z,1.50
2018-08-24T09:55:31.494Z,1.90
2018-08-24T09:58:04.376Z,2.17
2018-08-24T10:02:46.425Z,2.73
2018-08-24T10:08:17.952Z,1.90
2018-08-24T10:10:47.746Z,2.60
2018-08-24T10:13:18.259Z,2.40
2018-08-24T10:15:48.232Z,2.73
2018-08-24T10:18:18.765Z,2.40
2018-08-24T10:20:48.739Z,2.90
2018-08-24T10:23:18.270Z,2.53
2018-08-24T10:25:47.794Z,3.10
2018-08-24T10:28:19.240Z,2.50
2018-08-24T10:30:49.006Z,2.90
2018-08-24T10:33:19.269Z,2.60
2018-08-24T10:35:49.065Z,2.90
2018-08-24T10:38:18.756Z,2.10
2018-08-24T10:40:48.852Z,2.80
2018-08-24T10:43:18.365Z,2.23
2018-08-24T10:45:48.386Z,1.80
2018-08-24T10:48:18.280Z,1.90
2018-08-24T10:50:48.053Z,2.07
2018-08-24T10:53:17.513Z,1.40
2018-08-24T10:55:47.312Z,2.10
2018-08-24T10:58:16.919Z,1.90
2018-08-24T11:00:46.683Z,2.40
2018-08-24T11:03:17.082Z,2.40
2018-08-24T11:05:47.383Z,2.33
2018-08-24T11:08:16.937Z,3.17
2018-08-24T11:10:46.483Z,2.60
2018-08-24T11:13:16.220Z,2.03
2018-08-24T11:15:50.021Z,1.70
2018-08-24T11:18:21.630Z,2.43
2018-08-24T11:20:52.321Z,2.60
2018-08-24T11:23:22.959Z,2.60
2018-08-24T11:25:52.495Z,2.40
2018-08-24T11:28:22.528Z,2.97
2018-08-24T11:30:52.352Z,4.67
2018-08-24T11:33:23.069Z,5.57
2018-08-24T11:35:53.988Z,6.73
2018-08-24T11:38:24.140Z,5.70
2018-08-24T11:40:54.312Z,6.70
2018-08-24T11:43:24.659Z,6.00
2018-08-24T11:45:54.202Z,6.30
2018-08-24T11:48:23.757Z,6.33
2018-08-24T11:50:54.303Z,7.20
2018-08-24T11:53:25.185Z,6.13
2018-08-24T11:55:54.958Z,6.63
2018-08-24T11:58:25.877Z,5.97
2018-08-24T12:00:56.023Z,5.70
2018-08-24T12:03:26.242Z,6.33
2018-08-24T12:05:57.354Z,6.20
2018-08-24T12:08:30.031Z,5.77
2018-08-24T12:11:01.574Z,5.60
2018-08-24T12:13:31.796Z,5.53
2018-08-24T12:16:01.279Z,5.90
2018-08-24T12:18:30.967Z,6.40
2018-08-24T12:21:00.964Z,5.83
2018-08-24T12:23:30.991Z,5.67
2018-08-24T12:26:00.692Z,6.60
2018-08-24T12:28:30.736Z,5.87
2018-08-24T12:31:01.621Z,6.30
2018-08-24T12:33:31.392Z,5.97
2018-08-24T12:36:01.106Z,6.03
2018-08-24T12:38:30.508Z,5.87
2018-08-24T12:41:00.914Z,5.60
2018-08-24T12:43:31.456Z,5.87
2018-08-24T12:46:00.864Z,6.00
2018-08-24T12:48:31.603Z,5.90
2018-08-24T12:51:02.025Z,5.30
2018-08-24T12:53:33.400Z,5.20
2018-08-24T12:56:03.059Z,5.10
2018-08-24T12:58:33.400Z,4.40
2018-08-24T13:01:03.108Z,5.03
2018-08-24T13:03:32.633Z,5.50
2018-08-24T13:06:02.143Z,6.00
2018-08-24T13:08:31.823Z,6.10
2018-08-24T13:11:03.047Z,6.00
2018-08-24T13:13:33.152Z,6.37
2018-08-24T13:16:03.455Z,6.13
2018-08-24T13:18:33.288Z,5.50
2018-08-24T13:21:03.217Z,5.30
2018-08-24T13:23:32.790Z,5.37
2018-08-24T13:26:03.376Z,5.87
2018-08-24T13:28:33.620Z,5.37
2018-08-24T13:31:05.821Z,6.43
2018-08-24T13:33:35.626Z,6.10
2018-08-24T13:36:05.686Z,6.07
2018-08-24T13:38:35.808Z,5.30
2018-08-24T13:41:06.010Z,6.10
2018-08-24T13:43:37.925Z,6.27
2018-08-24T13:46:09.068Z,7.00
2018-08-24T13:48:40.483Z,6.67
2018-08-24T13:51:11.252Z,5.47
2018-08-24T13:53:41.154Z,7.07
2018-08-24T13:56:14.643Z,6.67
2018-08-24T13:58:45.062Z,5.73
2018-08-24T14:01:15.869Z,5.97
2018-08-24T14:03:46.378Z,6.03
2018-08-24T14:06:16.603Z,5.37
2018-08-24T14:08:46.180Z,6.17
2018-08-24T14:11:15.833Z,6.57
2018-08-24T14:13:45.730Z,6.00
2018-08-24T14:16:15.493Z,5.30
2018-08-24T14:18:45.686Z,5.33
2018-08-24T14:21:17.011Z,6.37
2018-08-24T14:23:48.188Z,6.57
2018-08-24T14:26:21.350Z,6.17
2018-08-24T14:28:50.957Z,7.07
2018-08-24T14:31:20.751Z,5.90
2018-08-24T14:33:51.028Z,6.37
2018-08-24T14:36:21.769Z,6.40
2018-08-24T14:38:52.193Z,5.70
2018-08-24T14:41:22.466Z,5.33
2018-08-24T14:43:52.884Z,6.13
2018-08-24T14:46:24.809Z,5.63
2018-08-24T14:48:54.746Z,5.40
2018-08-24T14:51:24.327Z,5.10
2018-08-24T14:53:54.986Z,5.97
2018-08-24T14:56:25.620Z,5.97
2018-08-24T14:58:56.440Z,5.93
2018-08-24T15:01:26.248Z,5.50
2018-08-24T15:03:56.241Z,6.20
2018-08-24T15:06:29.320Z,6.37
2018-08-24T15:08:59.869Z,5.53
2018-08-24T15:11:31.263Z,5.77
2018-08-24T15:14:01.310Z,5.40
2018-08-24T15:16:31.227Z,6.10
2018-08-24T15:19:02.420Z,4.77
2018-08-24T15:21:33.091Z,5.70
2018-08-24T15:24:03.894Z,4.70
2018-08-24T15:26:33.720Z,5.07
2018-08-24T15:29:03.634Z,5.20
2018-08-24T15:31:33.842Z,5.23
2018-08-24T15:34:03.585Z,5.43
2018-08-24T15:36:33.369Z,6.00
2018-08-24T15:39:04.898Z,6.37
2018-08-24T15:41:34.458Z,5.90
2018-08-24T15:44:03.911Z,5.83
2018-08-24T15:46:33.454Z,6.50
2018-08-24T15:49:04.444Z,8.00
2018-08-24T15:51:33.997Z,7.87
2018-08-24T15:54:04.260Z,8.20
2018-08-24T15:56:34.193Z,8.83
2018-08-24T15:59:04.226Z,8.57
2018-08-24T16:01:33.755Z,9.50
2018-08-24T16:04:03.474Z,9.00
2018-08-24T16:06:33.039Z,9.47
2018-08-24T16:09:02.908Z,8.90
2018-08-24T16:11:32.703Z,9.50
2018-08-24T16:14:02.253Z,10.10
2018-08-24T16:16:31.705Z,10.37
2018-08-24T16:19:01.126Z,9.90
2018-08-24T16:21:30.956Z,11.77
2018-08-24T16:24:00.805Z,8.90
2018-08-24T16:26:30.379Z,9.20
2018-08-24T16:28:59.804Z,8.93
2018-08-24T16:31:29.634Z,9.53
2018-08-24T16:33:59.373Z,9.33
2018-08-24T16:36:28.837Z,9.03
2018-08-24T16:38:59.236Z,9.47
2018-08-24T16:41:28.736Z,9.87
2018-08-24T16:43:58.521Z,10.10
2018-08-24T16:46:28.366Z,9.93
2018-08-24T16:48:58.711Z,9.60
2018-08-24T16:51:28.184Z,9.50
2018-08-24T16:53:58.445Z,8.70
2018-08-24T16:56:28.143Z,9.00
2018-08-24T16:58:57.536Z,7.87
2018-08-24T17:01:27.555Z,9.37
2018-08-24T17:03:57.297Z,9.07
2018-08-24T17:06:27.586Z,9.20
2018-08-24T17:08:57.616Z,9.00
2018-08-24T17:11:27.573Z,8.83
2018-08-24T17:13:57.345Z,8.73
2018-08-24T17:16:27.454Z,8.20
2018-08-24T17:18:57.826Z,8.00
2018-08-24T17:21:28.990Z,7.70
2018-08-24T17:23:59.400Z,7.60
2018-08-24T17:26:29.667Z,7.70
2018-08-24T17:29:00.648Z,7.07
2018-08-24T17:31:30.662Z,7.57
2018-08-24T17:34:01.181Z,7.33
2018-08-24T17:36:31.649Z,8.03
2018-08-24T17:39:02.788Z,7.77
2018-08-24T17:41:33.349Z,7.13
2018-08-24T17:44:03.587Z,7.40
2018-08-24T17:46:34.749Z,8.27
2018-08-24T17:49:06.360Z,8.43
2018-08-24T17:51:36.233Z,8.73
2018-08-24T17:54:06.908Z,8.40
2018-08-24T17:56:37.559Z,8.87
2018-08-24T17:59:09.507Z,8.30
2018-08-24T18:01:40.406Z,7.90
2018-08-24T18:04:10.907Z,8.73
2018-08-24T18:06:40.669Z,8.30
2018-08-24T18:09:12.128Z,8.07
2018-08-24T18:11:42.322Z,8.40
2018-08-24T18:14:12.591Z,7.73
2018-08-24T18:16:42.918Z,7.00
2018-08-24T18:19:14.360Z,7.43
2018-08-24T18:21:43.834Z,7.07
2018-08-24T18:24:13.914Z,6.87
2018-08-24T18:26:44.401Z,6.17
2018-08-24T18:29:14.930Z,6.73
2018-08-24T18:31:45.736Z,7.67
2018-08-24T18:34:16.163Z,7.07
2018-08-24T18:36:45.644Z,7.13
2018-08-24T18:39:16.394Z,8.37
2018-08-24T18:41:46.029Z,6.83
2018-08-24T18:44:16.258Z,7.00
2018-08-24T18:46:46.232Z,6.70
2018-08-24T18:49:15.747Z,6.60
2018-08-24T18:51:45.900Z,7.17
2018-08-24T18:54:15.828Z,6.90
2018-08-24T18:56:45.725Z,7.47
2018-08-24T18:59:17.539Z,6.70
2018-08-24T19:01:49.172Z,6.93
2018-08-24T19:04:20.755Z,6.40
2018-08-24T19:06:50.738Z,7.00
2018-08-24T19:09:20.791Z,7.33
2018-08-24T19:11:55.727Z,6.73
2018-08-24T19:14:27.951Z,7.40
2018-08-24T19:16:57.808Z,6.53
2018-08-24T19:19:34.219Z,7.47
2018-08-24T19:22:05.882Z,6.40
2018-08-24T19:24:35.629Z,6.90
2018-08-24T19:27:05.461Z,7.47
2018-08-24T19:29:41.496Z,7.27
2018-08-24T19:32:10.982Z,6.90
2018-08-24T19:34:40.567Z,7.10
2018-08-24T19:37:10.510Z,6.70
2018-08-24T19:39:40.458Z,7.50
2018-08-24T19:42:14.886Z,6.80
2018-08-24T19:44:45.048Z,7.30
2018-08-24T19:47:19.378Z,6.53
2018-08-24T19:49:49.190Z,7.00
2018-08-24T19:52:19.034Z,7.67
2018-08-24T19:54:48.972Z,7.50
2018-08-24T19:57:24.051Z,7.50
2018-08-24T19:59:55.384Z,8.30
2018-08-24T20:02:28.180Z,8.83
2018-08-24T20:04:58.314Z,7.43
2018-08-24T20:07:35.707Z,7.50
2018-08-24T20:10:10.785Z,7.53
2018-08-24T20:12:40.390Z,7.10
2018-08-24T20:15:15.697Z,7.00
2018-08-24T20:17:45.278Z,8.10
2018-08-24T20:20:15.535Z,7.47
2018-08-24T20:22:45.354Z,8.13
2018-08-24T20:25:17.756Z,7.70
2018-08-24T20:27:50.407Z,8.03
2018-08-24T20:30:20.435Z,8.27
2018-08-24T20:32:51.398Z,8.10
2018-08-24T20:35:21.844Z,7.57
2018-08-24T20:37:51.719Z,8.53
2018-08-24T20:40:21.887Z,8.20
2018-08-24T20:42:52.074Z,8.20
2018-08-24T20:45:22.438Z,7.80
2018-08-24T20:47:52.215Z,8.07
2018-08-24T20:50:22.398Z,7.20
2018-08-24T20:52:53.274Z,7.73
2018-08-24T20:55:23.310Z,7.93
2018-08-24T20:57:53.824Z,8.07
2018-08-24T21:00:25.978Z,7.80
2018-08-24T21:02:58.308Z,7.10
2018-08-24T21:05:28.986Z,7.17
2018-08-24T21:07:58.414Z,7.20
2018-08-24T21:10:29.996Z,7.47
2018-08-24T21:12:59.730Z,7.40
2018-08-24T21:15:30.043Z,8.30
2018-08-24T21:18:00.324Z,7.40
2018-08-24T21:20:30.058Z,7.60
2018-08-24T21:22:59.936Z,7.73
2018-08-24T21:25:30.306Z,7.30
2018-08-24T21:28:00.612Z,7.60
2018-08-24T21:30:30.901Z,6.93
2018-08-24T21:33:01.491Z,7.30
2018-08-24T21:35:32.026Z,7.17
2018-08-24T21:38:02.073Z,7.43
2018-08-24T21:40:31.902Z,7.50
2018-08-24T21:43:03.468Z,7.27
2018-08-24T21:45:33.945Z,6.87
2018-08-24T21:48:03.650Z,6.87
2018-08-24T21:50:33.149Z,6.90
2018-08-24T21:53:14.345Z,7.30
2018-08-24T21:55:44.219Z,7.70
2018-08-24T21:58:14.213Z,6.50
2018-08-24T22:00:44.783Z,6.63
2018-08-24T22:03:17.184Z,7.50
2018-08-24T22:05:47.937Z,6.03
2018-08-24T22:08:18.639Z,6.73
2018-08-24T22:10:49.402Z,6.70
2018-08-24T22:13:20.653Z,6.60
2018-08-24T22:15:50.647Z,7.23
2018-08-24T22:18:21.132Z,7.53
2018-08-24T22:20:50.877Z,7.30
2018-08-24T22:23:20.897Z,7.47
2018-08-24T22:25:51.826Z,6.87
2018-08-24T22:28:22.476Z,6.60
2018-08-24T22:30:53.361Z,6.80
2018-08-24T22:33:23.815Z,6.93
2018-08-24T22:35:54.116Z,6.53
2018-08-24T22:38:25.580Z,6.00
2018-08-24T22:40:56.249Z,6.77
2018-08-24T22:43:31.539Z,7.30
2018-08-24T22:46:02.888Z,7.00
2018-08-24T22:48:32.942Z,7.73
2018-08-24T22:51:02.722Z,6.87
2018-08-24T22:53:32.462Z,7.03
2018-08-24T22:56:02.721Z,6.97
2018-08-24T22:58:33.084Z,6.80
2018-08-24T23:01:02.895Z,6.67
2018-08-24T23:03:32.783Z,7.73
2018-08-24T23:06:02.545Z,6.43
2018-08-24T23:08:32.833Z,6.70
2018-08-24T23:11:03.221Z,6.70
2018-08-24T23:13:33.615Z,6.90
2018-08-24T23:16:04.300Z,7.10
2018-08-24T23:18:34.035Z,7.00
2018-08-24T23:21:03.762Z,6.90
2018-08-24T23:23:34.117Z,6.67
2018-08-24T23:26:04.088Z,6.70
2018-08-24T23:28:34.808Z,6.53
2018-08-24T23:31:04.619Z,6.00
2018-08-24T23:33:35.979Z,7.07
2018-08-24T23:36:06.888Z,6.97
2018-08-24T23:38:36.378Z,6.93
2018-08-24T23:41:06.901Z,6.13
2018-08-24T23:43:37.103Z,6.50
2018-08-24T23:46:07.509Z,6.67
2018-08-24T23:48:37.180Z,6.80
2018-08-24T23:51:07.031Z,6.43
2018-08-24T23:53:36.989Z,6.70
2018-08-24T23:56:06.600Z,6.77
2018-08-24T23:58:36.847Z,6.33
